sensor_id;sensor_type;location;lat;lon;timestamp;P1;durP1;ratioP1;P2;durP2;ratioP2
22924;SDS011;11628;51.072;3.712;2023-02-28T00:01:12;7.07;;;4.38;;
22924;SDS011;11628;51.072;3.712;2023-02-28T00:03:39;7.47;;;4.28;;
22924;SDS011;11628;51.072;3.712;2023-02-28T00:06:06;7.88;;;4.93;;
22924;SDS011;11628;51.072;3.712;2023-02-28T00:08:35;7.85;;;4.50;;
22924;SDS011;11628;51.072;3.712;2023-02-28T00:11:05;6.22;;;4.97;;
22924;SDS011;11628;51.072;3.712;2023-02-28T00:13:34;6.45;;;4.35;;
22924;SDS011;11628;51.072;3.712;2023-02-28T00:16:03;5.75;;;4.45;;
22924;SDS011;11628;51.072;3.712;2023-02-28T00:18:31;11.05;;;5.07;;
22924;SDS011;11628;51.072;3.712;2023-02-28T00:20:58;7.30;;;4.97;;
22924;SDS011;11628;51.072;3.712;2023-02-28T00:23:25;10.02;;;5.75;;
22924;SDS011;11628;51.072;3.712;2023-02-28T00:25:51;7.95;;;5.05;;
22924;SDS011;11628;51.072;3.712;2023-02-28T00:28:18;6.35;;;5.13;;
22924;SDS011;11628;51.072;3.712;2023-02-28T00:30:44;8.80;;;4.90;;
22924;SDS011;11628;51.072;3.712;2023-02-28T00:33:11;9.02;;;5.25;;
22924;SDS011;11628;51.072;3.712;2023-02-28T00:35:37;6.97;;;4.88;;
22924;SDS011;11628;51.072;3.712;2023-02-28T00:38:03;10.48;;;5.50;;
22924;SDS011;11628;51.072;3.712;2023-02-28T00:40:29;10.85;;;5.70;;
22924;SDS011;11628;51.072;3.712;2023-02-28T00:42:56;7.55;;;5.60;;
22924;SDS011;11628;51.072;3.712;2023-02-28T00:45:22;8.02;;;5.82;;
22924;SDS011;11628;51.072;3.712;2023-02-28T00:47:48;9.00;;;5.88;;
22924;SDS011;11628;51.072;3.712;2023-02-28T00:50:18;13.48;;;6.15;;
22924;SDS011;11628;51.072;3.712;2023-02-28T00:52:45;9.45;;;6.00;;
22924;SDS011;11628;51.072;3.712;2023-02-28T00:55:14;7.22;;;5.15;;
22924;SDS011;11628;51.072;3.712;2023-02-28T00:57:40;7.32;;;4.88;;
22924;SDS011;11628;51.072;3.712;2023-02-28T01:00:08;8.10;;;5.97;;
22924;SDS011;11628;51.072;3.712;2023-02-28T01:02:34;9.18;;;6.13;;
22924;SDS011;11628;51.072;3.712;2023-02-28T01:05:00;12.27;;;5.18;;
22924;SDS011;11628;51.072;3.712;2023-02-28T01:07:26;9.98;;;5.90;;
22924;SDS011;11628;51.072;3.712;2023-02-28T01:09:52;9.10;;;5.82;;
22924;SDS011;11628;51.072;3.712;2023-02-28T01:12:17;9.45;;;5.68;;
22924;SDS011;11628;51.072;3.712;2023-02-28T01:14:44;8.50;;;5.68;;
22924;SDS011;11628;51.072;3.712;2023-02-28T01:17:10;10.73;;;5.90;;
22924;SDS011;11628;51.072;3.712;2023-02-28T01:19:35;10.32;;;5.35;;
22924;SDS011;11628;51.072;3.712;2023-02-28T01:22:05;6.93;;;5.75;;
22924;SDS011;11628;51.072;3.712;2023-02-28T01:24:31;10.52;;;6.13;;
22924;SDS011;11628;51.072;3.712;2023-02-28T01:26:57;7.43;;;5.93;;
22924;SDS011;11628;51.072;3.712;2023-02-28T01:29:24;7.15;;;5.75;;
22924;SDS011;11628;51.072;3.712;2023-02-28T01:31:50;8.13;;;5.70;;
22924;SDS011;11628;51.072;3.712;2023-02-28T01:34:16;8.18;;;5.82;;
22924;SDS011;11628;51.072;3.712;2023-02-28T01:36:44;7.53;;;6.07;;
22924;SDS011;11628;51.072;3.712;2023-02-28T01:39:10;9.50;;;5.82;;
22924;SDS011;11628;51.072;3.712;2023-02-28T01:41:38;11.82;;;6.75;;
22924;SDS011;11628;51.072;3.712;2023-02-28T01:44:55;9.15;;;6.20;;
22924;SDS011;11628;51.072;3.712;2023-02-28T01:47:12;9.98;;;6.50;;
22924;SDS011;11628;51.072;3.712;2023-02-28T01:49:38;9.80;;;6.70;;
22924;SDS011;11628;51.072;3.712;2023-02-28T01:52:05;8.77;;;6.45;;
22924;SDS011;11628;51.072;3.712;2023-02-28T01:54:33;8.25;;;6.88;;
22924;SDS011;11628;51.072;3.712;2023-02-28T01:57:05;7.95;;;6.72;;
22924;SDS011;11628;51.072;3.712;2023-02-28T01:59:38;10.65;;;6.68;;
22924;SDS011;11628;51.072;3.712;2023-02-28T02:02:18;11.32;;;7.50;;
22924;SDS011;11628;51.072;3.712;2023-02-28T02:04:50;7.60;;;6.78;;
22924;SDS011;11628;51.072;3.712;2023-02-28T02:07:21;8.32;;;7.03;;
22924;SDS011;11628;51.072;3.712;2023-02-28T02:09:48;9.73;;;7.53;;
22924;SDS011;11628;51.072;3.712;2023-02-28T02:12:26;9.70;;;7.53;;
22924;SDS011;11628;51.072;3.712;2023-02-28T02:15:04;10.02;;;7.18;;
22924;SDS011;11628;51.072;3.712;2023-02-28T02:17:48;8.93;;;6.80;;
22924;SDS011;11628;51.072;3.712;2023-02-28T02:25:53;10.43;;;7.75;;
22924;SDS011;11628;51.072;3.712;2023-02-28T02:28:46;9.80;;;7.40;;
22924;SDS011;11628;51.072;3.712;2023-02-28T02:31:33;11.27;;;7.43;;
22924;SDS011;11628;51.072;3.712;2023-02-28T02:34:51;8.43;;;6.70;;
22924;SDS011;11628;51.072;3.712;2023-02-28T02:38:03;9.73;;;7.20;;
22924;SDS011;11628;51.072;3.712;2023-02-28T02:40:32;8.70;;;6.95;;
22924;SDS011;11628;51.072;3.712;2023-02-28T02:45:45;8.73;;;7.32;;
22924;SDS011;11628;51.072;3.712;2023-02-28T02:48:13;8.98;;;7.07;;
22924;SDS011;11628;51.072;3.712;2023-02-28T02:50:49;9.23;;;7.63;;
22924;SDS011;11628;51.072;3.712;2023-02-28T02:53:18;8.25;;;7.10;;
22924;SDS011;11628;51.072;3.712;2023-02-28T02:55:52;11.98;;;7.00;;
22924;SDS011;11628;51.072;3.712;2023-02-28T02:58:22;9.25;;;6.95;;
22924;SDS011;11628;51.072;3.712;2023-02-28T03:00:54;9.55;;;7.40;;
22924;SDS011;11628;51.072;3.712;2023-02-28T03:03:23;10.07;;;7.13;;
22924;SDS011;11628;51.072;3.712;2023-02-28T03:06:09;9.65;;;7.05;;
22924;SDS011;11628;51.072;3.712;2023-02-28T03:08:36;12.50;;;6.93;;
22924;SDS011;11628;51.072;3.712;2023-02-28T03:11:04;9.88;;;7.22;;
22924;SDS011;11628;51.072;3.712;2023-02-28T03:17:06;9.98;;;7.65;;
22924;SDS011;11628;51.072;3.712;2023-02-28T03:22:57;9.63;;;7.35;;
22924;SDS011;11628;51.072;3.712;2023-02-28T03:33:55;10.05;;;7.95;;
22924;SDS011;11628;51.072;3.712;2023-02-28T03:36:26;11.43;;;8.30;;
22924;SDS011;11628;51.072;3.712;2023-02-28T03:38:58;8.95;;;6.88;;
22924;SDS011;11628;51.072;3.712;2023-02-28T03:41:46;13.98;;;7.40;;
22924;SDS011;11628;51.072;3.712;2023-02-28T03:44:19;9.93;;;7.70;;
22924;SDS011;11628;51.072;3.712;2023-02-28T03:46:57;11.40;;;7.45;;
22924;SDS011;11628;51.072;3.712;2023-02-28T03:51:56;10.38;;;7.65;;
22924;SDS011;11628;51.072;3.712;2023-02-28T03:54:27;9.65;;;7.13;;
22924;SDS011;11628;51.072;3.712;2023-02-28T03:57:15;10.85;;;7.70;;
22924;SDS011;11628;51.072;3.712;2023-02-28T04:00:14;8.95;;;7.70;;
22924;SDS011;11628;51.072;3.712;2023-02-28T04:05:17;12.45;;;7.85;;
22924;SDS011;11628;51.072;3.712;2023-02-28T04:07:44;10.15;;;7.38;;
22924;SDS011;11628;51.072;3.712;2023-02-28T04:10:10;13.13;;;8.13;;
22924;SDS011;11628;51.072;3.712;2023-02-28T04:12:38;13.63;;;8.10;;
22924;SDS011;11628;51.072;3.712;2023-02-28T04:15:04;8.20;;;7.18;;
22924;SDS011;11628;51.072;3.712;2023-02-28T04:17:31;9.43;;;6.85;;
22924;SDS011;11628;51.072;3.712;2023-02-28T04:19:57;8.93;;;7.07;;
22924;SDS011;11628;51.072;3.712;2023-02-28T04:22:23;8.93;;;7.40;;
22924;SDS011;11628;51.072;3.712;2023-02-28T04:25:09;9.82;;;6.80;;
22924;SDS011;11628;51.072;3.712;2023-02-28T04:27:35;8.43;;;6.60;;
22924;SDS011;11628;51.072;3.712;2023-02-28T04:30:01;9.05;;;6.45;;
22924;SDS011;11628;51.072;3.712;2023-02-28T04:32:28;13.18;;;7.25;;
22924;SDS011;11628;51.072;3.712;2023-02-28T04:34:53;10.48;;;6.43;;
22924;SDS011;11628;51.072;3.712;2023-02-28T04:37:19;14.20;;;7.72;;
22924;SDS011;11628;51.072;3.712;2023-02-28T04:39:45;14.57;;;7.38;;
22924;SDS011;11628;51.072;3.712;2023-02-28T04:42:11;12.07;;;7.75;;
22924;SDS011;11628;51.072;3.712;2023-02-28T04:44:38;11.38;;;7.43;;
22924;SDS011;11628;51.072;3.712;2023-02-28T04:47:04;12.45;;;8.20;;
22924;SDS011;11628;51.072;3.712;2023-02-28T04:49:30;11.80;;;7.82;;
22924;SDS011;11628;51.072;3.712;2023-02-28T04:51:57;9.63;;;7.65;;
22924;SDS011;11628;51.072;3.712;2023-02-28T04:54:22;10.25;;;7.82;;
22924;SDS011;11628;51.072;3.712;2023-02-28T04:56:48;13.02;;;9.38;;
22924;SDS011;11628;51.072;3.712;2023-02-28T04:59:14;9.55;;;7.97;;
22924;SDS011;11628;51.072;3.712;2023-02-28T05:01:40;9.73;;;7.57;;
22924;SDS011;11628;51.072;3.712;2023-02-28T05:04:11;13.30;;;7.22;;
22924;SDS011;11628;51.072;3.712;2023-02-28T05:06:37;12.32;;;7.70;;
22924;SDS011;11628;51.072;3.712;2023-02-28T05:09:02;11.27;;;7.72;;
22924;SDS011;11628;51.072;3.712;2023-02-28T05:11:30;13.60;;;8.23;;
22924;SDS011;11628;51.072;3.712;2023-02-28T05:14:00;9.15;;;8.02;;
22924;SDS011;11628;51.072;3.712;2023-02-28T05:16:30;10.95;;;7.75;;
22924;SDS011;11628;51.072;3.712;2023-02-28T05:18:56;12.43;;;7.60;;
22924;SDS011;11628;51.072;3.712;2023-02-28T05:23:58;14.38;;;7.82;;
22924;SDS011;11628;51.072;3.712;2023-02-28T05:26:26;12.60;;;8.05;;
22924;SDS011;11628;51.072;3.712;2023-02-28T05:28:52;10.13;;;7.43;;
22924;SDS011;11628;51.072;3.712;2023-02-28T05:31:18;12.40;;;7.90;;
22924;SDS011;11628;51.072;3.712;2023-02-28T05:33:46;11.88;;;7.15;;
22924;SDS011;11628;51.072;3.712;2023-02-28T05:36:12;12.85;;;7.07;;
22924;SDS011;11628;51.072;3.712;2023-02-28T05:38:39;10.98;;;7.15;;
22924;SDS011;11628;51.072;3.712;2023-02-28T05:41:08;9.10;;;7.22;;
22924;SDS011;11628;51.072;3.712;2023-02-28T05:43:35;13.63;;;8.35;;
22924;SDS011;11628;51.072;3.712;2023-02-28T05:46:06;10.88;;;7.45;;
22924;SDS011;11628;51.072;3.712;2023-02-28T05:48:33;11.10;;;7.00;;
22924;SDS011;11628;51.072;3.712;2023-02-28T05:51:01;9.45;;;7.15;;
22924;SDS011;11628;51.072;3.712;2023-02-28T05:53:28;11.23;;;7.63;;
22924;SDS011;11628;51.072;3.712;2023-02-28T05:55:54;8.40;;;6.88;;
22924;SDS011;11628;51.072;3.712;2023-02-28T05:58:21;10.38;;;7.70;;
22924;SDS011;11628;51.072;3.712;2023-02-28T06:00:47;12.68;;;7.50;;
22924;SDS011;11628;51.072;3.712;2023-02-28T06:03:13;54.10;;;28.23;;
22924;SDS011;11628;51.072;3.712;2023-02-28T06:05:39;15.68;;;8.93;;
22924;SDS011;11628;51.072;3.712;2023-02-28T06:08:05;14.70;;;8.43;;
22924;SDS011;11628;51.072;3.712;2023-02-28T06:10:32;15.40;;;9.00;;
22924;SDS011;11628;51.072;3.712;2023-02-28T06:13:02;14.75;;;8.60;;
22924;SDS011;11628;51.072;3.712;2023-02-28T06:15:29;14.32;;;8.40;;
22924;SDS011;11628;51.072;3.712;2023-02-28T06:17:55;15.70;;;8.73;;
22924;SDS011;11628;51.072;3.712;2023-02-28T06:20:23;16.38;;;7.35;;
22924;SDS011;11628;51.072;3.712;2023-02-28T06:22:49;16.15;;;7.72;;
22924;SDS011;11628;51.072;3.712;2023-02-28T06:25:19;14.10;;;7.78;;
22924;SDS011;11628;51.072;3.712;2023-02-28T06:27:45;12.30;;;7.38;;
22924;SDS011;11628;51.072;3.712;2023-02-28T06:30:14;10.25;;;7.07;;
22924;SDS011;11628;51.072;3.712;2023-02-28T06:32:40;15.35;;;8.60;;
22924;SDS011;11628;51.072;3.712;2023-02-28T06:35:06;16.55;;;7.93;;
22924;SDS011;11628;51.072;3.712;2023-02-28T06:37:34;15.75;;;7.47;;
22924;SDS011;11628;51.072;3.712;2023-02-28T06:39:59;13.40;;;7.05;;
22924;SDS011;11628;51.072;3.712;2023-02-28T06:42:26;14.63;;;6.97;;
22924;SDS011;11628;51.072;3.712;2023-02-28T06:44:53;17.10;;;8.07;;
22924;SDS011;11628;51.072;3.712;2023-02-28T06:47:20;19.88;;;8.82;;
22924;SDS011;11628;51.072;3.712;2023-02-28T06:49:47;12.63;;;7.28;;
22924;SDS011;11628;51.072;3.712;2023-02-28T06:52:13;15.13;;;7.07;;
22924;SDS011;11628;51.072;3.712;2023-02-28T06:54:39;13.35;;;6.80;;
22924;SDS011;11628;51.072;3.712;2023-02-28T06:57:04;19.75;;;10.02;;
22924;SDS011;11628;51.072;3.712;2023-02-28T06:59:31;18.45;;;8.35;;
22924;SDS011;11628;51.072;3.712;2023-02-28T07:01:57;12.73;;;6.20;;
22924;SDS011;11628;51.072;3.712;2023-02-28T07:04:23;8.80;;;5.53;;
22924;SDS011;11628;51.072;3.712;2023-02-28T07:06:49;10.70;;;5.60;;
22924;SDS011;11628;51.072;3.712;2023-02-28T07:09:15;12.02;;;5.47;;
22924;SDS011;11628;51.072;3.712;2023-02-28T07:11:41;12.05;;;6.38;;
22924;SDS011;11628;51.072;3.712;2023-02-28T07:14:07;9.77;;;5.07;;
22924;SDS011;11628;51.072;3.712;2023-02-28T07:16:33;8.93;;;5.13;;
22924;SDS011;11628;51.072;3.712;2023-02-28T07:19:01;10.05;;;5.00;;
22924;SDS011;11628;51.072;3.712;2023-02-28T07:21:27;18.08;;;5.35;;
22924;SDS011;11628;51.072;3.712;2023-02-28T07:23:53;11.00;;;5.30;;
22924;SDS011;11628;51.072;3.712;2023-02-28T07:26:19;9.75;;;5.53;;
22924;SDS011;11628;51.072;3.712;2023-02-28T07:28:47;10.07;;;6.07;;
22924;SDS011;11628;51.072;3.712;2023-02-28T07:31:13;16.42;;;6.65;;
22924;SDS011;11628;51.072;3.712;2023-02-28T07:33:41;14.13;;;5.30;;
22924;SDS011;11628;51.072;3.712;2023-02-28T07:36:08;9.70;;;5.75;;
22924;SDS011;11628;51.072;3.712;2023-02-28T07:38:40;22.45;;;6.63;;
22924;SDS011;11628;51.072;3.712;2023-02-28T07:41:07;10.18;;;4.55;;
22924;SDS011;11628;51.072;3.712;2023-02-28T07:43:34;10.02;;;4.07;;
22924;SDS011;11628;51.072;3.712;2023-02-28T07:46:09;11.63;;;3.70;;
22924;SDS011;11628;51.072;3.712;2023-02-28T07:48:37;9.68;;;3.83;;
22924;SDS011;11628;51.072;3.712;2023-02-28T07:51:04;6.88;;;4.15;;
22924;SDS011;11628;51.072;3.712;2023-02-28T07:53:30;11.82;;;4.50;;
22924;SDS011;11628;51.072;3.712;2023-02-28T07:55:57;5.95;;;3.80;;
22924;SDS011;11628;51.072;3.712;2023-02-28T07:58:24;10.05;;;4.80;;
22924;SDS011;11628;51.072;3.712;2023-02-28T08:00:51;5.75;;;4.97;;
22924;SDS011;11628;51.072;3.712;2023-02-28T08:03:18;7.80;;;3.80;;
22924;SDS011;11628;51.072;3.712;2023-02-28T08:05:45;9.43;;;3.70;;
22924;SDS011;11628;51.072;3.712;2023-02-28T08:08:11;7.97;;;3.97;;
22924;SDS011;11628;51.072;3.712;2023-02-28T08:10:37;6.30;;;3.83;;
22924;SDS011;11628;51.072;3.712;2023-02-28T08:13:03;9.48;;;4.05;;
22924;SDS011;11628;51.072;3.712;2023-02-28T08:15:29;7.32;;;3.97;;
22924;SDS011;11628;51.072;3.712;2023-02-28T08:17:54;6.45;;;4.03;;
22924;SDS011;11628;51.072;3.712;2023-02-28T08:20:23;8.10;;;4.00;;
22924;SDS011;11628;51.072;3.712;2023-02-28T08:22:49;8.00;;;5.38;;
22924;SDS011;11628;51.072;3.712;2023-02-28T08:25:15;6.60;;;4.53;;
22924;SDS011;11628;51.072;3.712;2023-02-28T08:27:42;12.48;;;5.63;;
22924;SDS011;11628;51.072;3.712;2023-02-28T08:30:09;8.07;;;5.00;;
22924;SDS011;11628;51.072;3.712;2023-02-28T08:32:37;7.50;;;4.60;;
22924;SDS011;11628;51.072;3.712;2023-02-28T08:35:04;7.75;;;4.70;;
22924;SDS011;11628;51.072;3.712;2023-02-28T08:37:30;7.60;;;4.72;;
22924;SDS011;11628;51.072;3.712;2023-02-28T08:39:56;8.55;;;4.28;;
22924;SDS011;11628;51.072;3.712;2023-02-28T08:42:23;6.60;;;4.50;;
22924;SDS011;11628;51.072;3.712;2023-02-28T08:44:49;8.75;;;5.43;;
22924;SDS011;11628;51.072;3.712;2023-02-28T08:47:15;12.40;;;4.85;;
22924;SDS011;11628;51.072;3.712;2023-02-28T08:49:42;6.93;;;4.70;;
22924;SDS011;11628;51.072;3.712;2023-02-28T08:52:08;8.95;;;5.05;;
22924;SDS011;11628;51.072;3.712;2023-02-28T08:54:34;11.07;;;5.03;;
22924;SDS011;11628;51.072;3.712;2023-02-28T08:57:01;8.30;;;4.82;;
22924;SDS011;11628;51.072;3.712;2023-02-28T08:59:29;7.00;;;4.30;;
22924;SDS011;11628;51.072;3.712;2023-02-28T09:01:55;10.10;;;5.13;;
22924;SDS011;11628;51.072;3.712;2023-02-28T09:04:21;8.82;;;5.30;;
22924;SDS011;11628;51.072;3.712;2023-02-28T09:06:48;7.57;;;5.13;;
22924;SDS011;11628;51.072;3.712;2023-02-28T09:09:13;11.18;;;5.55;;
22924;SDS011;11628;51.072;3.712;2023-02-28T09:11:40;8.30;;;4.97;;
22924;SDS011;11628;51.072;3.712;2023-02-28T09:14:06;8.77;;;4.78;;
22924;SDS011;11628;51.072;3.712;2023-02-28T09:16:32;6.85;;;5.15;;
22924;SDS011;11628;51.072;3.712;2023-02-28T09:18:59;7.78;;;4.50;;
22924;SDS011;11628;51.072;3.712;2023-02-28T09:21:25;8.93;;;4.53;;
22924;SDS011;11628;51.072;3.712;2023-02-28T09:23:52;8.65;;;4.97;;
22924;SDS011;11628;51.072;3.712;2023-02-28T09:26:20;14.15;;;5.40;;
22924;SDS011;11628;51.072;3.712;2023-02-28T09:28:47;6.13;;;4.97;;
22924;SDS011;11628;51.072;3.712;2023-02-28T09:31:15;8.07;;;4.75;;
22924;SDS011;11628;51.072;3.712;2023-02-28T09:33:49;8.95;;;4.72;;
22924;SDS011;11628;51.072;3.712;2023-02-28T09:36:17;5.55;;;4.47;;
22924;SDS011;11628;51.072;3.712;2023-02-28T09:38:44;5.78;;;4.53;;
22924;SDS011;11628;51.072;3.712;2023-02-28T09:41:14;6.70;;;4.38;;
22924;SDS011;11628;51.072;3.712;2023-02-28T09:43:59;5.85;;;4.18;;
22924;SDS011;11628;51.072;3.712;2023-02-28T09:49:06;6.90;;;4.03;;
22924;SDS011;11628;51.072;3.712;2023-02-28T09:51:40;9.75;;;4.32;;
22924;SDS011;11628;51.072;3.712;2023-02-28T09:54:19;7.30;;;4.32;;
22924;SDS011;11628;51.072;3.712;2023-02-28T09:56:53;12.00;;;6.85;;
22924;SDS011;11628;51.072;3.712;2023-02-28T09:59:42;7.13;;;4.13;;
22924;SDS011;11628;51.072;3.712;2023-02-28T10:02:47;5.32;;;4.05;;
22924;SDS011;11628;51.072;3.712;2023-02-28T10:05:20;6.75;;;3.90;;
22924;SDS011;11628;51.072;3.712;2023-02-28T10:13:52;14.27;;;4.38;;
22924;SDS011;11628;51.072;3.712;2023-02-28T10:16:06;7.53;;;4.20;;
22924;SDS011;11628;51.072;3.712;2023-02-28T10:18:43;8.05;;;3.40;;
22924;SDS011;11628;51.072;3.712;2023-02-28T10:21:31;10.25;;;3.70;;
22924;SDS011;11628;51.072;3.712;2023-02-28T10:24:11;4.82;;;3.03;;
22924;SDS011;11628;51.072;3.712;2023-02-28T10:26:40;5.15;;;3.42;;
22924;SDS011;11628;51.072;3.712;2023-02-28T10:29:10;9.68;;;3.80;;
22924;SDS011;11628;51.072;3.712;2023-02-28T10:31:36;12.00;;;3.50;;
22924;SDS011;11628;51.072;3.712;2023-02-28T10:34:04;10.05;;;3.30;;
22924;SDS011;11628;51.072;3.712;2023-02-28T10:36:31;6.50;;;2.80;;
22924;SDS011;11628;51.072;3.712;2023-02-28T10:38:57;12.07;;;3.22;;
22924;SDS011;11628;51.072;3.712;2023-02-28T10:46:46;3.03;;;2.50;;
22924;SDS011;11628;51.072;3.712;2023-02-28T10:49:15;4.97;;;2.70;;
22924;SDS011;11628;51.072;3.712;2023-02-28T10:51:48;5.97;;;2.60;;
22924;SDS011;11628;51.072;3.712;2023-02-28T10:54:22;6.38;;;2.63;;
22924;SDS011;11628;51.072;3.712;2023-02-28T10:57:17;9.15;;;2.70;;
22924;SDS011;11628;51.072;3.712;2023-02-28T10:59:45;5.07;;;2.05;;
22924;SDS011;11628;51.072;3.712;2023-02-28T11:02:33;7.43;;;2.65;;
22924;SDS011;11628;51.072;3.712;2023-02-28T11:05:31;5.38;;;1.92;;
22924;SDS011;11628;51.072;3.712;2023-02-28T11:08:17;6.00;;;4.70;;
22924;SDS011;11628;51.072;3.712;2023-02-28T11:10:54;4.35;;;2.13;;
22924;SDS011;11628;51.072;3.712;2023-02-28T11:13:25;4.35;;;2.22;;
22924;SDS011;11628;51.072;3.712;2023-02-28T11:15:57;3.03;;;2.05;;
22924;SDS011;11628;51.072;3.712;2023-02-28T11:21:09;4.10;;;2.25;;
22924;SDS011;11628;51.072;3.712;2023-02-28T11:23:42;8.88;;;2.45;;
22924;SDS011;11628;51.072;3.712;2023-02-28T11:26:08;3.97;;;2.10;;
22924;SDS011;11628;51.072;3.712;2023-02-28T11:29:03;3.40;;;2.60;;
22924;SDS011;11628;51.072;3.712;2023-02-28T11:34:19;3.60;;;2.70;;
22924;SDS011;11628;51.072;3.712;2023-02-28T11:36:49;3.33;;;2.00;;
22924;SDS011;11628;51.072;3.712;2023-02-28T11:39:16;4.15;;;2.33;;
22924;SDS011;11628;51.072;3.712;2023-02-28T11:41:48;7.70;;;2.35;;
22924;SDS011;11628;51.072;3.712;2023-02-28T11:50:11;4.00;;;1.83;;
22924;SDS011;11628;51.072;3.712;2023-02-28T11:52:52;3.35;;;1.80;;
22924;SDS011;11628;51.072;3.712;2023-02-28T11:58:42;4.70;;;2.33;;
22924;SDS011;11628;51.072;3.712;2023-02-28T12:07:00;8.32;;;2.25;;
22924;SDS011;11628;51.072;3.712;2023-02-28T12:12:29;2.97;;;2.40;;
22924;SDS011;11628;51.072;3.712;2023-02-28T12:15:05;4.10;;;2.08;;
22924;SDS011;11628;51.072;3.712;2023-02-28T12:20:38;5.18;;;2.00;;
22924;SDS011;11628;51.072;3.712;2023-02-28T12:28:43;4.15;;;1.52;;
22924;SDS011;11628;51.072;3.712;2023-02-28T12:33:46;3.08;;;1.80;;
22924;SDS011;11628;51.072;3.712;2023-02-28T12:36:18;4.43;;;2.00;;
22924;SDS011;11628;51.072;3.712;2023-02-28T12:41:29;4.53;;;1.60;;
22924;SDS011;11628;51.072;3.712;2023-02-28T12:44:05;2.13;;;1.83;;
22924;SDS011;11628;51.072;3.712;2023-02-28T12:46:42;3.78;;;2.05;;
22924;SDS011;11628;51.072;3.712;2023-02-28T12:52:10;2.70;;;1.55;;
22924;SDS011;11628;51.072;3.712;2023-02-28T12:54:47;1.80;;;1.40;;
22924;SDS011;11628;51.072;3.712;2023-02-28T13:00:18;3.45;;;1.83;;
22924;SDS011;11628;51.072;3.712;2023-02-28T13:02:55;3.50;;;1.40;;
22924;SDS011;11628;51.072;3.712;2023-02-28T13:05:52;4.30;;;1.80;;
22924;SDS011;11628;51.072;3.712;2023-02-28T13:08:44;2.53;;;1.40;;
22924;SDS011;11628;51.072;3.712;2023-02-28T13:11:25;3.15;;;1.60;;
22924;SDS011;11628;51.072;3.712;2023-02-28T13:13:57;5.55;;;2.00;;
22924;SDS011;11628;51.072;3.712;2023-02-28T13:19:34;5.18;;;1.80;;
22924;SDS011;11628;51.072;3.712;2023-02-28T13:22:04;2.28;;;1.45;;
22924;SDS011;11628;51.072;3.712;2023-02-28T13:29:35;3.13;;;1.75;;
22924;SDS011;11628;51.072;3.712;2023-02-28T13:45:20;2.75;;;1.60;;
22924;SDS011;11628;51.072;3.712;2023-02-28T13:47:54;5.30;;;1.77;;
22924;SDS011;11628;51.072;3.712;2023-02-28T13:58:46;2.70;;;1.70;;
22924;SDS011;11628;51.072;3.712;2023-02-28T14:07:00;3.35;;;1.80;;
22924;SDS011;11628;51.072;3.712;2023-02-28T14:09:28;3.25;;;1.60;;
22924;SDS011;11628;51.072;3.712;2023-02-28T14:11:55;4.22;;;1.67;;
22924;SDS011;11628;51.072;3.712;2023-02-28T14:17:03;3.25;;;1.50;;
22924;SDS011;11628;51.072;3.712;2023-02-28T14:19:38;9.02;;;2.00;;
22924;SDS011;11628;51.072;3.712;2023-02-28T14:32:39;5.30;;;2.03;;
22924;SDS011;11628;51.072;3.712;2023-02-28T14:37:51;4.15;;;1.67;;
22924;SDS011;11628;51.072;3.712;2023-02-28T14:40:32;3.20;;;2.22;;
22924;SDS011;11628;51.072;3.712;2023-02-28T14:43:05;4.32;;;2.08;;
22924;SDS011;11628;51.072;3.712;2023-02-28T14:45:44;2.58;;;1.90;;
22924;SDS011;11628;51.072;3.712;2023-02-28T14:48:19;3.17;;;1.98;;
22924;SDS011;11628;51.072;3.712;2023-02-28T14:50:51;4.28;;;2.60;;
22924;SDS011;11628;51.072;3.712;2023-02-28T14:53:22;2.05;;;1.75;;
22924;SDS011;11628;51.072;3.712;2023-02-28T14:55:51;5.18;;;2.28;;
22924;SDS011;11628;51.072;3.712;2023-02-28T14:58:39;5.63;;;2.42;;
22924;SDS011;11628;51.072;3.712;2023-02-28T15:01:04;2.85;;;2.05;;
22924;SDS011;11628;51.072;3.712;2023-02-28T15:03:31;3.92;;;2.22;;
22924;SDS011;11628;51.072;3.712;2023-02-28T15:06:12;6.90;;;2.50;;
22924;SDS011;11628;51.072;3.712;2023-02-28T15:08:41;3.45;;;2.20;;
22924;SDS011;11628;51.072;3.712;2023-02-28T15:11:08;3.85;;;2.20;;
22924;SDS011;11628;51.072;3.712;2023-02-28T15:16:16;5.72;;;2.10;;
22924;SDS011;11628;51.072;3.712;2023-02-28T15:21:34;3.08;;;2.38;;
22924;SDS011;11628;51.072;3.712;2023-02-28T15:24:27;3.17;;;2.42;;
22924;SDS011;11628;51.072;3.712;2023-02-28T15:26:57;4.53;;;2.45;;
22924;SDS011;11628;51.072;3.712;2023-02-28T15:29:25;4.30;;;2.50;;
22924;SDS011;11628;51.072;3.712;2023-02-28T15:32:00;3.65;;;2.35;;
22924;SDS011;11628;51.072;3.712;2023-02-28T15:39:52;3.95;;;3.00;;
22924;SDS011;11628;51.072;3.712;2023-02-28T15:42:22;3.13;;;2.47;;
22924;SDS011;11628;51.072;3.712;2023-02-28T15:44:52;5.65;;;2.95;;
22924;SDS011;11628;51.072;3.712;2023-02-28T15:47:22;3.67;;;2.58;;
22924;SDS011;11628;51.072;3.712;2023-02-28T15:49:51;7.03;;;4.78;;
22924;SDS011;11628;51.072;3.712;2023-02-28T15:52:21;4.93;;;2.45;;
22924;SDS011;11628;51.072;3.712;2023-02-28T15:55:15;5.35;;;2.78;;
22924;SDS011;11628;51.072;3.712;2023-02-28T15:57:44;7.63;;;2.90;;
22924;SDS011;11628;51.072;3.712;2023-02-28T16:00:13;5.05;;;2.80;;
22924;SDS011;11628;51.072;3.712;2023-02-28T16:02:40;3.97;;;2.85;;
22924;SDS011;11628;51.072;3.712;2023-02-28T16:07:33;4.32;;;2.88;;
22924;SDS011;11628;51.072;3.712;2023-02-28T16:10:02;4.82;;;2.88;;
22924;SDS011;11628;51.072;3.712;2023-02-28T16:12:29;4.32;;;2.60;;
22924;SDS011;11628;51.072;3.712;2023-02-28T16:14:59;4.60;;;3.42;;
22924;SDS011;11628;51.072;3.712;2023-02-28T16:17:29;6.90;;;2.55;;
22924;SDS011;11628;51.072;3.712;2023-02-28T16:19:57;5.68;;;3.13;;
22924;SDS011;11628;51.072;3.712;2023-02-28T16:22:24;4.00;;;2.78;;
22924;SDS011;11628;51.072;3.712;2023-02-28T16:24:51;4.78;;;2.88;;
22924;SDS011;11628;51.072;3.712;2023-02-28T16:27:18;5.00;;;3.15;;
22924;SDS011;11628;51.072;3.712;2023-02-28T16:29:51;6.28;;;3.10;;
22924;SDS011;11628;51.072;3.712;2023-02-28T16:32:19;3.40;;;2.80;;
22924;SDS011;11628;51.072;3.712;2023-02-28T16:34:45;4.65;;;2.97;;
22924;SDS011;11628;51.072;3.712;2023-02-28T16:37:12;4.00;;;2.70;;
22924;SDS011;11628;51.072;3.712;2023-02-28T16:39:40;4.85;;;3.00;;
22924;SDS011;11628;51.072;3.712;2023-02-28T16:42:07;4.15;;;3.10;;
22924;SDS011;11628;51.072;3.712;2023-02-28T16:44:35;4.40;;;2.80;;
22924;SDS011;11628;51.072;3.712;2023-02-28T16:47:02;4.70;;;2.85;;
22924;SDS011;11628;51.072;3.712;2023-02-28T16:49:29;3.58;;;2.72;;
22924;SDS011;11628;51.072;3.712;2023-02-28T16:51:55;6.45;;;3.33;;
22924;SDS011;11628;51.072;3.712;2023-02-28T16:54:20;4.25;;;3.40;;
22924;SDS011;11628;51.072;3.712;2023-02-28T16:56:47;6.53;;;3.40;;
22924;SDS011;11628;51.072;3.712;2023-02-28T16:59:15;3.25;;;2.95;;
22924;SDS011;11628;51.072;3.712;2023-02-28T17:01:44;6.38;;;3.08;;
22924;SDS011;11628;51.072;3.712;2023-02-28T17:04:10;4.65;;;3.40;;
22924;SDS011;11628;51.072;3.712;2023-02-28T17:06:37;6.03;;;3.20;;
22924;SDS011;11628;51.072;3.712;2023-02-28T17:09:05;3.92;;;3.03;;
22924;SDS011;11628;51.072;3.712;2023-02-28T17:11:33;6.03;;;3.65;;
22924;SDS011;11628;51.072;3.712;2023-02-28T17:13:59;6.30;;;3.15;;
22924;SDS011;11628;51.072;3.712;2023-02-28T17:18:54;6.32;;;4.15;;
22924;SDS011;11628;51.072;3.712;2023-02-28T17:21:23;7.97;;;4.00;;
22924;SDS011;11628;51.072;3.712;2023-02-28T17:23:49;4.90;;;3.40;;
22924;SDS011;11628;51.072;3.712;2023-02-28T17:26:16;7.53;;;3.20;;
22924;SDS011;11628;51.072;3.712;2023-02-28T17:28:49;4.72;;;3.83;;
22924;SDS011;11628;51.072;3.712;2023-02-28T17:31:16;5.05;;;3.78;;
22924;SDS011;11628;51.072;3.712;2023-02-28T17:33:43;5.68;;;3.30;;
22924;SDS011;11628;51.072;3.712;2023-02-28T17:36:13;3.88;;;3.47;;